sensor_id;sensor_type;location;lat;lon;timestamp;P1;durP1;ratioP1;P2;durP2;ratioP2
35150;SDS011;55720;51.972;4.624;2023-05-07T00:00:02;21.67;;;13.38;;
35150;SDS011;55720;51.972;4.624;2023-05-07T00:02:28;22.83;;;14.02;;
35150;SDS011;55720;51.972;4.624;2023-05-07T00:04:54;20.83;;;13.48;;
35150;SDS011;55720;51.972;4.624;2023-05-07T00:07:20;24.13;;;14.27;;
35150;SDS011;55720;51.972;4.624;2023-05-07T00:09:45;26.08;;;14.30;;
35150;SDS011;55720;51.972;4.624;2023-05-07T00:12:11;22.08;;;13.43;;
35150;SDS011;55720;51.972;4.624;2023-05-07T00:14:36;23.58;;;13.85;;
35150;SDS011;55720;51.972;4.624;2023-05-07T00:17:01;22.60;;;13.82;;
35150;SDS011;55720;51.972;4.624;2023-05-07T00:19:27;22.45;;;13.57;;
35150;SDS011;55720;51.972;4.624;2023-05-07T00:21:52;22.52;;;13.45;;
35150;SDS011;55720;51.972;4.624;2023-05-07T00:24:19;20.02;;;13.43;;
35150;SDS011;55720;51.972;4.624;2023-05-07T00:26:44;22.38;;;13.50;;
35150;SDS011;55720;51.972;4.624;2023-05-07T00:29:09;20.65;;;13.50;;
35150;SDS011;55720;51.972;4.624;2023-05-07T00:31:35;19.98;;;13.07;;
35150;SDS011;55720;51.972;4.624;2023-05-07T00:34:00;27.50;;;13.43;;
35150;SDS011;55720;51.972;4.624;2023-05-07T00:36:25;21.35;;;13.35;;
35150;SDS011;55720;51.972;4.624;2023-05-07T00:38:51;25.80;;;14.70;;
35150;SDS011;55720;51.972;4.624;2023-05-07T00:41:16;24.20;;;14.00;;
35150;SDS011;55720;51.972;4.624;2023-05-07T00:43:42;29.77;;;15.82;;
35150;SDS011;55720;51.972;4.624;2023-05-07T00:46:07;24.77;;;15.23;;
35150;SDS011;55720;51.972;4.624;2023-05-07T00:48:32;23.40;;;14.23;;
35150;SDS011;55720;51.972;4.624;2023-05-07T00:50:58;22.73;;;14.60;;
35150;SDS011;55720;51.972;4.624;2023-05-07T00:53:23;23.20;;;13.77;;
35150;SDS011;55720;51.972;4.624;2023-05-07T00:55:49;25.33;;;14.40;;
35150;SDS011;55720;51.972;4.624;2023-05-07T00:58:15;27.35;;;14.68;;
35150;SDS011;55720;51.972;4.624;2023-05-07T01:00:41;24.02;;;13.50;;
35150;SDS011;55720;51.972;4.624;2023-05-07T01:03:07;23.13;;;15.02;;
35150;SDS011;55720;51.972;4.624;2023-05-07T01:05:32;24.70;;;14.88;;
35150;SDS011;55720;51.972;4.624;2023-05-07T01:07:58;23.20;;;13.90;;
35150;SDS011;55720;51.972;4.624;2023-05-07T01:10:24;25.77;;;14.70;;
35150;SDS011;55720;51.972;4.624;2023-05-07T01:12:50;30.27;;;15.43;;
35150;SDS011;55720;51.972;4.624;2023-05-07T01:15:17;25.83;;;14.93;;
35150;SDS011;55720;51.972;4.624;2023-05-07T01:17:43;24.83;;;14.02;;
35150;SDS011;55720;51.972;4.624;2023-05-07T01:20:09;28.98;;;15.48;;
35150;SDS011;55720;51.972;4.624;2023-05-07T01:22:39;27.55;;;14.48;;
35150;SDS011;55720;51.972;4.624;2023-05-07T01:25:05;28.45;;;14.98;;
35150;SDS011;55720;51.972;4.624;2023-05-07T01:27:35;27.20;;;15.52;;
35150;SDS011;55720;51.972;4.624;2023-05-07T01:30:02;30.23;;;16.67;;
35150;SDS011;55720;51.972;4.624;2023-05-07T01:32:51;28.77;;;16.85;;
35150;SDS011;55720;51.972;4.624;2023-05-07T01:35:22;32.25;;;17.42;;
35150;SDS011;55720;51.972;4.624;2023-05-07T01:37:54;35.90;;;17.45;;
35150;SDS011;55720;51.972;4.624;2023-05-07T01:40:19;38.75;;;18.45;;
35150;SDS011;55720;51.972;4.624;2023-05-07T01:42:46;33.22;;;19.23;;
35150;SDS011;55720;51.972;4.624;2023-05-07T01:45:13;36.25;;;19.17;;
35150;SDS011;55720;51.972;4.624;2023-05-07T01:47:38;37.40;;;19.80;;
35150;SDS011;55720;51.972;4.624;2023-05-07T01:50:07;35.70;;;19.02;;
35150;SDS011;55720;51.972;4.624;2023-05-07T01:52:35;34.30;;;19.40;;
35150;SDS011;55720;51.972;4.624;2023-05-07T01:55:02;35.88;;;19.90;;
35150;SDS011;55720;51.972;4.624;2023-05-07T01:57:27;32.63;;;19.58;;
35150;SDS011;55720;51.972;4.624;2023-05-07T01:59:53;34.78;;;20.33;;
35150;SDS011;55720;51.972;4.624;2023-05-07T02:02:18;31.92;;;19.85;;
35150;SDS011;55720;51.972;4.624;2023-05-07T02:04:43;37.25;;;21.30;;
35150;SDS011;55720;51.972;4.624;2023-05-07T02:07:09;31.25;;;19.90;;
35150;SDS011;55720;51.972;4.624;2023-05-07T02:09:35;34.25;;;19.75;;
35150;SDS011;55720;51.972;4.624;2023-05-07T02:12:00;31.73;;;19.95;;
35150;SDS011;55720;51.972;4.624;2023-05-07T02:14:26;36.42;;;20.48;;
35150;SDS011;55720;51.972;4.624;2023-05-07T02:16:51;32.22;;;19.63;;
35150;SDS011;55720;51.972;4.624;2023-05-07T02:19:17;34.80;;;20.13;;
35150;SDS011;55720;51.972;4.624;2023-05-07T02:21:43;33.67;;;19.10;;
35150;SDS011;55720;51.972;4.624;2023-05-07T02:24:08;33.55;;;18.83;;
35150;SDS011;55720;51.972;4.624;2023-05-07T02:26:34;36.95;;;19.38;;
35150;SDS011;55720;51.972;4.624;2023-05-07T02:28:59;29.85;;;18.65;;
35150;SDS011;55720;51.972;4.624;2023-05-07T02:31:24;29.45;;;19.27;;
35150;SDS011;55720;51.972;4.624;2023-05-07T02:33:50;30.98;;;19.00;;
35150;SDS011;55720;51.972;4.624;2023-05-07T02:36:15;30.95;;;19.33;;
35150;SDS011;55720;51.972;4.624;2023-05-07T02:38:41;31.35;;;18.42;;
35150;SDS011;55720;51.972;4.624;2023-05-07T02:41:06;33.03;;;19.83;;
35150;SDS011;55720;51.972;4.624;2023-05-07T02:43:31;34.55;;;20.05;;
35150;SDS011;55720;51.972;4.624;2023-05-07T02:46:03;30.33;;;18.85;;
35150;SDS011;55720;51.972;4.624;2023-05-07T02:48:30;31.33;;;19.02;;
35150;SDS011;55720;51.972;4.624;2023-05-07T02:50:56;30.95;;;18.80;;
35150;SDS011;55720;51.972;4.624;2023-05-07T02:53:22;32.53;;;19.80;;
35150;SDS011;55720;51.972;4.624;2023-05-07T02:55:47;32.10;;;18.88;;
35150;SDS011;55720;51.972;4.624;2023-05-07T02:58:13;29.00;;;17.60;;
35150;SDS011;55720;51.972;4.624;2023-05-07T03:00:38;30.13;;;18.63;;
35150;SDS011;55720;51.972;4.624;2023-05-07T03:03:03;24.50;;;17.40;;
35150;SDS011;55720;51.972;4.624;2023-05-07T03:05:29;26.98;;;18.10;;
35150;SDS011;55720;51.972;4.624;2023-05-07T03:07:54;29.33;;;18.65;;
35150;SDS011;55720;51.972;4.624;2023-05-07T03:10:19;28.05;;;18.40;;
35150;SDS011;55720;51.972;4.624;2023-05-07T03:12:45;28.27;;;17.92;;
35150;SDS011;55720;51.972;4.624;2023-05-07T03:15:10;26.50;;;17.80;;
35150;SDS011;55720;51.972;4.624;2023-05-07T03:17:37;30.67;;;18.42;;
35150;SDS011;55720;51.972;4.624;2023-05-07T03:20:03;25.88;;;16.80;;
35150;SDS011;55720;51.972;4.624;2023-05-07T03:22:28;24.80;;;16.73;;
35150;SDS011;55720;51.972;4.624;2023-05-07T03:24:54;23.23;;;16.17;;
35150;SDS011;55720;51.972;4.624;2023-05-07T03:27:19;23.23;;;16.38;;
35150;SDS011;55720;51.972;4.624;2023-05-07T03:29:45;23.30;;;16.60;;
35150;SDS011;55720;51.972;4.624;2023-05-07T03:32:10;22.98;;;16.23;;
35150;SDS011;55720;51.972;4.624;2023-05-07T03:34:35;24.23;;;16.08;;
35150;SDS011;55720;51.972;4.624;2023-05-07T03:37:01;19.27;;;15.35;;
35150;SDS011;55720;51.972;4.624;2023-05-07T03:39:26;22.08;;;15.55;;
35150;SDS011;55720;51.972;4.624;2023-05-07T03:41:51;20.58;;;15.25;;
35150;SDS011;55720;51.972;4.624;2023-05-07T03:44:17;21.48;;;15.35;;
35150;SDS011;55720;51.972;4.624;2023-05-07T03:46:42;21.05;;;14.98;;
35150;SDS011;55720;51.972;4.624;2023-05-07T03:49:08;22.13;;;15.35;;
35150;SDS011;55720;51.972;4.624;2023-05-07T03:51:33;20.77;;;15.52;;
35150;SDS011;55720;51.972;4.624;2023-05-07T03:53:58;18.85;;;14.32;;
35150;SDS011;55720;51.972;4.624;2023-05-07T03:56:24;19.20;;;14.98;;
35150;SDS011;55720;51.972;4.624;2023-05-07T03:58:51;19.63;;;13.70;;
35150;SDS011;55720;51.972;4.624;2023-05-07T04:01:17;20.05;;;14.80;;
35150;SDS011;55720;51.972;4.624;2023-05-07T04:03:42;19.13;;;13.88;;
35150;SDS011;55720;51.972;4.624;2023-05-07T04:06:07;19.85;;;14.20;;
35150;SDS011;55720;51.972;4.624;2023-05-07T04:08:33;18.60;;;14.38;;
35150;SDS011;55720;51.972;4.624;2023-05-07T04:10:58;21.25;;;14.43;;
35150;SDS011;55720;51.972;4.624;2023-05-07T04:13:24;17.50;;;13.57;;
35150;SDS011;55720;51.972;4.624;2023-05-07T04:15:51;18.35;;;13.82;;
35150;SDS011;55720;51.972;4.624;2023-05-07T04:18:17;17.65;;;13.85;;
35150;SDS011;55720;51.972;4.624;2023-05-07T04:20:42;16.92;;;13.23;;
35150;SDS011;55720;51.972;4.624;2023-05-07T04:23:08;15.40;;;11.98;;
35150;SDS011;55720;51.972;4.624;2023-05-07T04:25:33;17.65;;;12.80;;
35150;SDS011;55720;51.972;4.624;2023-05-07T04:27:59;17.10;;;13.00;;
35150;SDS011;55720;51.972;4.624;2023-05-07T04:30:24;17.52;;;12.77;;
35150;SDS011;55720;51.972;4.624;2023-05-07T04:32:50;16.52;;;11.77;;
35150;SDS011;55720;51.972;4.624;2023-05-07T04:35:16;18.63;;;12.77;;
35150;SDS011;55720;51.972;4.624;2023-05-07T04:37:42;15.88;;;12.68;;
35150;SDS011;55720;51.972;4.624;2023-05-07T04:40:07;18.70;;;12.52;;
35150;SDS011;55720;51.972;4.624;2023-05-07T04:42:33;17.27;;;13.05;;
35150;SDS011;55720;51.972;4.624;2023-05-07T04:44:58;16.17;;;12.20;;
35150;SDS011;55720;51.972;4.624;2023-05-07T04:47:24;18.17;;;13.00;;
35150;SDS011;55720;51.972;4.624;2023-05-07T04:49:49;16.63;;;12.63;;
35150;SDS011;55720;51.972;4.624;2023-05-07T04:52:14;16.48;;;13.02;;
35150;SDS011;55720;51.972;4.624;2023-05-07T04:54:40;19.05;;;12.95;;
35150;SDS011;55720;51.972;4.624;2023-05-07T04:57:05;16.85;;;12.73;;
35150;SDS011;55720;51.972;4.624;2023-05-07T04:59:31;21.70;;;13.95;;
35150;SDS011;55720;51.972;4.624;2023-05-07T05:01:57;17.48;;;12.63;;
35150;SDS011;55720;51.972;4.624;2023-05-07T05:04:22;17.02;;;13.60;;
35150;SDS011;55720;51.972;4.624;2023-05-07T05:06:48;21.90;;;14.30;;
35150;SDS011;55720;51.972;4.624;2023-05-07T05:09:13;15.43;;;12.48;;
35150;SDS011;55720;51.972;4.624;2023-05-07T05:11:40;16.58;;;12.48;;
35150;SDS011;55720;51.972;4.624;2023-05-07T05:14:05;16.52;;;12.68;;
35150;SDS011;55720;51.972;4.624;2023-05-07T05:16:30;17.75;;;12.60;;
35150;SDS011;55720;51.972;4.624;2023-05-07T05:18:56;14.13;;;12.50;;
35150;SDS011;55720;51.972;4.624;2023-05-07T05:21:21;17.48;;;13.38;;
35150;SDS011;55720;51.972;4.624;2023-05-07T05:23:46;16.60;;;13.32;;
35150;SDS011;55720;51.972;4.624;2023-05-07T05:26:12;14.88;;;11.82;;
35150;SDS011;55720;51.972;4.624;2023-05-07T05:28:37;16.45;;;12.48;;
35150;SDS011;55720;51.972;4.624;2023-05-07T05:31:04;14.80;;;11.98;;
35150;SDS011;55720;51.972;4.624;2023-05-07T05:33:30;18.92;;;12.73;;
35150;SDS011;55720;51.972;4.624;2023-05-07T05:35:55;17.88;;;12.32;;
35150;SDS011;55720;51.972;4.624;2023-05-07T05:38:20;15.85;;;12.45;;
35150;SDS011;55720;51.972;4.624;2023-05-07T05:40:46;17.67;;;13.50;;
35150;SDS011;55720;51.972;4.624;2023-05-07T05:43:11;16.02;;;12.43;;
35150;SDS011;55720;51.972;4.624;2023-05-07T05:45:37;16.85;;;13.80;;
35150;SDS011;55720;51.972;4.624;2023-05-07T05:48:02;17.67;;;13.55;;
35150;SDS011;55720;51.972;4.624;2023-05-07T05:50:28;20.15;;;14.15;;
35150;SDS011;55720;51.972;4.624;2023-05-07T05:52:53;19.42;;;14.88;;
35150;SDS011;55720;51.972;4.624;2023-05-07T05:55:19;18.33;;;15.02;;
35150;SDS011;55720;51.972;4.624;2023-05-07T05:57:44;22.67;;;15.07;;
35150;SDS011;55720;51.972;4.624;2023-05-07T06:00:10;20.73;;;16.15;;
35150;SDS011;55720;51.972;4.624;2023-05-07T06:02:36;21.48;;;15.38;;
35150;SDS011;55720;51.972;4.624;2023-05-07T06:05:02;20.55;;;15.38;;
35150;SDS011;55720;51.972;4.624;2023-05-07T06:07:28;22.02;;;16.17;;
35150;SDS011;55720;51.972;4.624;2023-05-07T06:09:53;25.08;;;15.68;;
35150;SDS011;55720;51.972;4.624;2023-05-07T06:12:19;22.48;;;16.20;;
35150;SDS011;55720;51.972;4.624;2023-05-07T06:14:44;24.67;;;16.92;;
35150;SDS011;55720;51.972;4.624;2023-05-07T06:17:09;27.02;;;17.08;;
35150;SDS011;55720;51.972;4.624;2023-05-07T06:19:35;26.65;;;16.80;;
35150;SDS011;55720;51.972;4.624;2023-05-07T06:22:00;25.50;;;17.85;;
35150;SDS011;55720;51.972;4.624;2023-05-07T06:24:27;30.02;;;18.15;;
35150;SDS011;55720;51.972;4.624;2023-05-07T06:26:53;27.35;;;18.27;;
35150;SDS011;55720;51.972;4.624;2023-05-07T06:29:18;28.70;;;18.73;;
35150;SDS011;55720;51.972;4.624;2023-05-07T06:31:43;30.08;;;19.35;;
35150;SDS011;55720;51.972;4.624;2023-05-07T06:34:09;30.50;;;19.45;;
35150;SDS011;55720;51.972;4.624;2023-05-07T06:36:35;32.42;;;19.65;;
35150;SDS011;55720;51.972;4.624;2023-05-07T06:39:00;31.70;;;19.73;;
35150;SDS011;55720;51.972;4.624;2023-05-07T06:41:26;31.85;;;20.48;;
35150;SDS011;55720;51.972;4.624;2023-05-07T06:43:51;29.05;;;19.77;;
35150;SDS011;55720;51.972;4.624;2023-05-07T06:46:17;31.25;;;20.88;;
35150;SDS011;55720;51.972;4.624;2023-05-07T06:48:42;35.55;;;22.92;;
35150;SDS011;55720;51.972;4.624;2023-05-07T06:51:07;34.20;;;20.75;;
35150;SDS011;55720;51.972;4.624;2023-05-07T06:53:33;34.53;;;21.48;;
35150;SDS011;55720;51.972;4.624;2023-05-07T06:55:59;32.05;;;20.10;;
35150;SDS011;55720;51.972;4.624;2023-05-07T06:58:24;33.38;;;20.20;;
35150;SDS011;55720;51.972;4.624;2023-05-07T07:00:50;29.92;;;18.90;;
35150;SDS011;55720;51.972;4.624;2023-05-07T07:03:15;30.48;;;20.27;;
35150;SDS011;55720;51.972;4.624;2023-05-07T07:05:41;29.42;;;18.27;;
35150;SDS011;55720;51.972;4.624;2023-05-07T07:08:07;32.47;;;19.05;;
35150;SDS011;55720;51.972;4.624;2023-05-07T07:10:32;31.58;;;18.13;;
35150;SDS011;55720;51.972;4.624;2023-05-07T07:12:58;29.77;;;18.83;;
35150;SDS011;55720;51.972;4.624;2023-05-07T07:15:23;28.55;;;18.48;;
35150;SDS011;55720;51.972;4.624;2023-05-07T07:17:50;27.75;;;19.15;;
35150;SDS011;55720;51.972;4.624;2023-05-07T07:20:16;32.63;;;19.90;;
35150;SDS011;55720;51.972;4.624;2023-05-07T07:22:41;29.88;;;18.70;;
35150;SDS011;55720;51.972;4.624;2023-05-07T07:25:07;28.52;;;18.73;;
35150;SDS011;55720;51.972;4.624;2023-05-07T07:27:32;30.95;;;19.38;;
35150;SDS011;55720;51.972;4.624;2023-05-07T07:29:58;29.73;;;19.85;;
35150;SDS011;55720;51.972;4.624;2023-05-07T07:32:23;27.52;;;18.08;;
35150;SDS011;55720;51.972;4.624;2023-05-07T07:34:48;25.67;;;16.30;;
35150;SDS011;55720;51.972;4.624;2023-05-07T07:37:14;21.40;;;15.70;;
35150;SDS011;55720;51.972;4.624;2023-05-07T07:39:39;18.95;;;15.00;;
35150;SDS011;55720;51.972;4.624;2023-05-07T07:42:06;16.70;;;13.07;;
35150;SDS011;55720;51.972;4.624;2023-05-07T07:44:31;16.50;;;10.98;;
35150;SDS011;55720;51.972;4.624;2023-05-07T07:46:56;12.15;;;10.75;;
35150;SDS011;55720;51.972;4.624;2023-05-07T07:49:22;10.65;;;9.60;;
35150;SDS011;55720;51.972;4.624;2023-05-07T07:51:47;10.98;;;9.23;;
35150;SDS011;55720;51.972;4.624;2023-05-07T07:54:13;10.95;;;9.80;;
35150;SDS011;55720;51.972;4.624;2023-05-07T07:56:38;10.63;;;8.85;;
35150;SDS011;55720;51.972;4.624;2023-05-07T07:59:04;10.10;;;9.05;;
35150;SDS011;55720;51.972;4.624;2023-05-07T08:01:29;9.43;;;8.52;;
35150;SDS011;55720;51.972;4.624;2023-05-07T08:03:55;13.98;;;9.52;;
35150;SDS011;55720;51.972;4.624;2023-05-07T08:06:22;13.30;;;8.43;;
35150;SDS011;55720;51.972;4.624;2023-05-07T08:08:49;10.43;;;9.20;;
35150;SDS011;55720;51.972;4.624;2023-05-07T08:11:14;10.57;;;8.15;;
35150;SDS011;55720;51.972;4.624;2023-05-07T08:13:40;9.15;;;8.23;;
35150;SDS011;55720;51.972;4.624;2023-05-07T08:16:05;9.75;;;8.32;;
35150;SDS011;55720;51.972;4.624;2023-05-07T08:18:30;9.68;;;8.68;;
35150;SDS011;55720;51.972;4.624;2023-05-07T08:20:56;10.07;;;8.57;;
35150;SDS011;55720;51.972;4.624;2023-05-07T08:23:21;11.65;;;9.10;;
35150;SDS011;55720;51.972;4.624;2023-05-07T08:25:47;12.25;;;9.35;;
35150;SDS011;55720;51.972;4.624;2023-05-07T08:28:14;9.65;;;8.65;;
35150;SDS011;55720;51.972;4.624;2023-05-07T08:30:40;12.30;;;10.00;;
35150;SDS011;55720;51.972;4.624;2023-05-07T08:33:05;16.63;;;11.02;;
35150;SDS011;55720;51.972;4.624;2023-05-07T08:35:31;14.48;;;10.85;;
35150;SDS011;55720;51.972;4.624;2023-05-07T08:37:56;13.43;;;11.35;;
35150;SDS011;55720;51.972;4.624;2023-05-07T08:40:23;11.10;;;10.00;;
35150;SDS011;55720;51.972;4.624;2023-05-07T08:42:51;10.75;;;9.60;;
35150;SDS011;55720;51.972;4.624;2023-05-07T08:45:19;11.90;;;9.20;;
35150;SDS011;55720;51.972;4.624;2023-05-07T08:47:52;10.90;;;8.88;;
35150;SDS011;55720;51.972;4.624;2023-05-07T08:50:23;12.93;;;8.85;;
35150;SDS011;55720;51.972;4.624;2023-05-07T08:52:49;11.57;;;9.35;;
35150;SDS011;55720;51.972;4.624;2023-05-07T08:55:14;10.52;;;9.40;;
35150;SDS011;55720;51.972;4.624;2023-05-07T08:57:40;8.98;;;8.00;;
35150;SDS011;55720;51.972;4.624;2023-05-07T09:00:05;10.15;;;9.13;;
35150;SDS011;55720;51.972;4.624;2023-05-07T09:02:32;11.05;;;8.05;;
35150;SDS011;55720;51.972;4.624;2023-05-07T09:04:58;8.32;;;7.45;;
35150;SDS011;55720;51.972;4.624;2023-05-07T09:07:23;9.75;;;7.68;;
35150;SDS011;55720;51.972;4.624;2023-05-07T09:09:50;9.40;;;8.25;;
35150;SDS011;55720;51.972;4.624;2023-05-07T09:12:17;9.00;;;8.20;;
35150;SDS011;55720;51.972;4.624;2023-05-07T09:14:43;9.98;;;8.85;;
35150;SDS011;55720;51.972;4.624;2023-05-07T09:17:10;11.43;;;9.18;;
35150;SDS011;55720;51.972;4.624;2023-05-07T09:19:36;9.75;;;8.85;;
35150;SDS011;55720;51.972;4.624;2023-05-07T09:22:02;11.07;;;9.27;;
35150;SDS011;55720;51.972;4.624;2023-05-07T09:24:29;10.35;;;9.20;;
35150;SDS011;55720;51.972;4.624;2023-05-07T09:26:59;9.20;;;8.07;;
35150;SDS011;55720;51.972;4.624;2023-05-07T09:29:26;8.80;;;7.90;;
35150;SDS011;55720;51.972;4.624;2023-05-07T09:31:54;8.93;;;7.53;;
35150;SDS011;55720;51.972;4.624;2023-05-07T09:34:19;9.23;;;7.50;;
35150;SDS011;55720;51.972;4.624;2023-05-07T09:36:45;9.20;;;8.30;;
35150;SDS011;55720;51.972;4.624;2023-05-07T09:39:10;8.00;;;7.10;;
35150;SDS011;55720;51.972;4.624;2023-05-07T09:41:48;8.43;;;7.63;;
35150;SDS011;55720;51.972;4.624;2023-05-07T09:44:19;10.13;;;7.85;;
35150;SDS011;55720;51.972;4.624;2023-05-07T09:46:46;9.38;;;8.07;;
35150;SDS011;55720;51.972;4.624;2023-05-07T09:49:22;8.88;;;7.20;;
35150;SDS011;55720;51.972;4.624;2023-05-07T09:51:50;7.75;;;6.95;;
35150;SDS011;55720;51.972;4.624;2023-05-07T09:54:17;9.05;;;7.80;;
35150;SDS011;55720;51.972;4.624;2023-05-07T09:56:48;8.60;;;7.70;;
35150;SDS011;55720;51.972;4.624;2023-05-07T09:59:14;8.70;;;7.72;;
35150;SDS011;55720;51.972;4.624;2023-05-07T10:01:41;8.80;;;7.90;;
35150;SDS011;55720;51.972;4.624;2023-05-07T10:04:08;9.48;;;7.97;;
35150;SDS011;55720;51.972;4.624;2023-05-07T10:06:34;11.50;;;8.20;;
35150;SDS011;55720;51.972;4.624;2023-05-07T10:09:00;8.02;;;7.22;;
35150;SDS011;55720;51.972;4.624;2023-05-07T10:11:26;7.32;;;6.72;;
35150;SDS011;55720;51.972;4.624;2023-05-07T10:13:52;7.22;;;6.50;;
35150;SDS011;55720;51.972;4.624;2023-05-07T10:16:18;7.53;;;6.82;;
35150;SDS011;55720;51.972;4.624;2023-05-07T10:18:44;7.32;;;6.72;;
35150;SDS011;55720;51.972;4.624;2023-05-07T10:21:11;8.23;;;7.07;;
35150;SDS011;55720;51.972;4.624;2023-05-07T10:23:38;7.57;;;6.88;;
35150;SDS011;55720;51.972;4.624;2023-05-07T10:26:06;9.07;;;6.70;;
35150;SDS011;55720;51.972;4.624;2023-05-07T10:28:34;7.65;;;5.95;;
35150;SDS011;55720;51.972;4.624;2023-05-07T10:31:08;6.95;;;6.07;;
35150;SDS011;55720;51.972;4.624;2023-05-07T10:33:44;7.68;;;5.35;;
35150;SDS011;55720;51.972;4.624;2023-05-07T10:36:13;5.20;;;4.72;;
35150;SDS011;55720;51.972;4.624;2023-05-07T10:38:39;6.90;;;5.03;;
35150;SDS011;55720;51.972;4.624;2023-05-07T10:41:05;6.22;;;5.05;;
35150;SDS011;55720;51.972;4.624;2023-05-07T10:43:40;5.88;;;4.80;;
35150;SDS011;55720;51.972;4.624;2023-05-07T10:49:06;4.88;;;4.35;;
35150;SDS011;55720;51.972;4.624;2023-05-07T10:51:32;4.30;;;3.65;;
35150;SDS011;55720;51.972;4.624;2023-05-07T10:56:39;5.43;;;4.28;;
35150;SDS011;55720;51.972;4.624;2023-05-07T11:02:04;6.65;;;4.25;;
35150;SDS011;55720;51.972;4.624;2023-05-07T11:04:31;4.65;;;4.22;;
35150;SDS011;55720;51.972;4.624;2023-05-07T11:13:02;5.53;;;3.47;;
35150;SDS011;55720;51.972;4.624;2023-05-07T11:15:06;5.65;;;3.78;;
35150;SDS011;55720;51.972;4.624;2023-05-07T11:17:33;4.80;;;4.40;;
35150;SDS011;55720;51.972;4.624;2023-05-07T11:20:02;6.20;;;4.47;;
35150;SDS011;55720;51.972;4.624;2023-05-07T11:24:56;5.78;;;4.45;;
35150;SDS011;55720;51.972;4.624;2023-05-07T11:27:25;6.38;;;4.50;;
35150;SDS011;55720;51.972;4.624;2023-05-07T11:29:52;6.38;;;4.32;;
35150;SDS011;55720;51.972;4.624;2023-05-07T11:32:24;4.97;;;4.30;;
35150;SDS011;55720;51.972;4.624;2023-05-07T11:34:54;7.03;;;4.70;;
35150;SDS011;55720;51.972;4.624;2023-05-07T11:37:21;5.22;;;4.82;;
35150;SDS011;55720;51.972;4.624;2023-05-07T11:39:48;5.13;;;4.63;;
35150;SDS011;55720;51.972;4.624;2023-05-07T11:42:30;5.32;;;4.93;;
35150;SDS011;55720;51.972;4.624;2023-05-07T11:44:57;6.85;;;5.68;;
35150;SDS011;55720;51.972;4.624;2023-05-07T11:47:22;7.60;;;5.00;;
35150;SDS011;55720;51.972;4.624;2023-05-07T11:49:49;6.38;;;4.88;;
35150;SDS011;55720;51.972;4.624;2023-05-07T11:52:16;5.75;;;4.43;;
35150;SDS011;55720;51.972;4.624;2023-05-07T11:54:56;6.05;;;4.72;;
35150;SDS011;55720;51.972;4.624;2023-05-07T11:57:25;6.53;;;4.70;;
35150;SDS011;55720;51.972;4.624;2023-05-07T11:59:58;5.22;;;4.72;;
35150;SDS011;55720;51.972;4.624;2023-05-07T12:02:24;5.88;;;5.28;;
35150;SDS011;55720;51.972;4.624;2023-05-07T12:04:51;4.60;;;4.20;;
35150;SDS011;55720;51.972;4.624;2023-05-07T12:07:17;7.25;;;5.13;;
35150;SDS011;55720;51.972;4.624;2023-05-07T12:09:43;5.32;;;4.93;;
35150;SDS011;55720;51.972;4.624;2023-05-07T12:12:10;5.25;;;4.80;;
35150;SDS011;55720;51.972;4.624;2023-05-07T12:14:40;6.53;;;5.28;;
35150;SDS011;55720;51.972;4.624;2023-05-07T12:19:35;7.20;;;5.10;;
35150;SDS011;55720;51.972;4.624;2023-05-07T12:22:04;5.78;;;5.28;;
35150;SDS011;55720;51.972;4.624;2023-05-07T12:24:48;8.50;;;5.75;;
35150;SDS011;55720;51.972;4.624;2023-05-07T12:27:15;7.38;;;5.57;;
35150;SDS011;55720;51.972;4.624;2023-05-07T12:29:46;6.10;;;5.50;;
35150;SDS011;55720;51.972;4.624;2023-05-07T12:32:18;6.68;;;5.38;;
35150;SDS011;55720;51.972;4.624;2023-05-07T12:34:45;6.15;;;5.55;;
35150;SDS011;55720;51.972;4.624;2023-05-07T12:37:11;6.18;;;5.18;;
35150;SDS011;55720;51.972;4.624;2023-05-07T12:39:37;5.57;;;5.10;;
35150;SDS011;55720;51.972;4.624;2023-05-07T12:42:03;6.57;;;5.13;;
35150;SDS011;55720;51.972;4.624;2023-05-07T12:44:29;6.28;;;5.10;;
35150;SDS011;55720;51.972;4.624;2023-05-07T12:46:56;5.18;;;4.75;;
35150;SDS011;55720;51.972;4.624;2023-05-07T12:49:22;7.70;;;4.85;;
35150;SDS011;55720;51.972;4.624;2023-05-07T12:51:48;6.05;;;5.45;;
35150;SDS011;55720;51.972;4.624;2023-05-07T12:54:30;6.07;;;5.00;;
35150;SDS011;55720;51.972;4.624;2023-05-07T12:57:04;5.55;;;5.05;;
35150;SDS011;55720;51.972;4.624;2023-05-07T12:59:40;6.30;;;5.65;;
35150;SDS011;55720;51.972;4.624;2023-05-07T13:02:06;5.38;;;4.88;;
35150;SDS011;55720;51.972;4.624;2023-05-07T13:04:32;5.65;;;5.03;;
35150;SDS011;55720;51.972;4.624;2023-05-07T13:07:01;6.22;;;5.60;;
35150;SDS011;55720;51.972;4.624;2023-05-07T13:09:27;5.63;;;5.10;;
35150;SDS011;55720;51.972;4.624;2023-05-07T13:11:54;4.55;;;3.90;;
35150;SDS011;55720;51.972;4.624;2023-05-07T13:14:20;4.70;;;4.13;;
35150;SDS011;55720;51.972;4.624;2023-05-07T13:16:48;4.22;;;3.60;;
35150;SDS011;55720;51.972;4.624;2023-05-07T13:19:14;4.53;;;4.03;;
35150;SDS011;55720;51.972;4.624;2023-05-07T13:21:39;6.10;;;4.47;;
35150;SDS011;55720;51.972;4.624;2023-05-07T13:24:05;6.72;;;5.88;;
35150;SDS011;55720;51.972;4.624;2023-05-07T13:26:31;9.57;;;6.75;;
35150;SDS011;55720;51.972;4.624;2023-05-07T13:29:16;9.77;;;7.50;;
35150;SDS011;55720;51.972;4.624;2023-05-07T13:31:41;9.20;;;7.32;;
35150;SDS011;55720;51.972;4.624;2023-05-07T13:34:09;11.05;;;7.75;;
35150;SDS011;55720;51.972;4.624;2023-05-07T13:36:34;12.50;;;7.90;;
35150;SDS011;55720;51.972;4.624;2023-05-07T13:39:02;14.85;;;7.32;;
35150;SDS011;55720;51.972;4.624;2023-05-07T13:41:28;14.15;;;8.35;;
35150;SDS011;55720;51.972;4.624;2023-05-07T13:43:54;11.45;;;8.13;;
35150;SDS011;55720;51.972;4.624;2023-05-07T13:46:19;16.58;;;8.70;;
35150;SDS011;55720;51.972;4.624;2023-05-07T13:48:44;13.20;;;8.77;;
35150;SDS011;55720;51.972;4.624;2023-05-07T13:51:10;14.57;;;9.30;;
35150;SDS011;55720;51.972;4.624;2023-05-07T13:53:36;13.73;;;8.93;;
35150;SDS011;55720;51.972;4.624;2023-05-07T13:56:01;11.13;;;9.10;;
35150;SDS011;55720;51.972;4.624;2023-05-07T13:58:29;12.43;;;8.68;;
35150;SDS011;55720;51.972;4.624;2023-05-07T14:00:55;13.75;;;8.95;;
35150;SDS011;55720;51.972;4.624;2023-05-07T14:03:20;17.45;;;9.18;;
35150;SDS011;55720;51.972;4.624;2023-05-07T14:05:45;13.25;;;8.55;;
35150;SDS011;55720;51.972;4.624;2023-05-07T14:08:11;8.48;;;7.53;;
35150;SDS011;55720;51.972;4.624;2023-05-07T14:10:38;14.25;;;8.25;;
35150;SDS011;55720;51.972;4.624;2023-05-07T14:13:04;11.02;;;7.60;;
35150;SDS011;55720;51.972;4.624;2023-05-07T14:15:30;8.70;;;7.70;;
35150;SDS011;55720;51.972;4.624;2023-05-07T14:17:57;10.25;;;9.13;;
35150;SDS011;55720;51.972;4.624;2023-05-07T14:20:24;11.52;;;8.45;;
35150;SDS011;55720;51.972;4.624;2023-05-07T14:22:49;17.48;;;10.38;;
35150;SDS011;55720;51.972;4.624;2023-05-07T14:25:15;10.55;;;9.45;;
35150;SDS011;55720;51.972;4.624;2023-05-07T14:27:40;15.18;;;9.90;;
35150;SDS011;55720;51.972;4.624;2023-05-07T14:30:06;17.02;;;10.77;;
35150;SDS011;55720;51.972;4.624;2023-05-07T14:32:32;16.02;;;10.80;;
35150;SDS011;55720;51.972;4.624;2023-05-07T14:34:58;16.95;;;11.35;;
35150;SDS011;55720;51.972;4.624;2023-05-07T14:37:23;15.70;;;10.75;;
35150;SDS011;55720;51.972;4.624;2023-05-07T14:39:49;18.52;;;11.45;;
35150;SDS011;55720;51.972;4.624;2023-05-07T14:42:14;14.65;;;10.65;;
35150;SDS011;55720;51.972;4.624;2023-05-07T14:44:40;16.42;;;11.82;;